sensor_id;sensor_type;location;lat;lon;timestamp;temperature;humidity
27544;DHT22;17996;51.056;3.656;2022-10-31T00:00:07;14.20;99.90
27544;DHT22;17996;51.056;3.656;2022-10-31T00:02:34;14.20;99.90
27544;DHT22;17996;51.056;3.656;2022-10-31T00:04:59;14.30;99.90
27544;DHT22;17996;51.056;3.656;2022-10-31T00:07:26;14.40;99.90
27544;DHT22;17996;51.056;3.656;2022-10-31T00:09:52;14.30;99.90
27544;DHT22;17996;51.056;3.656;2022-10-31T00:12:17;14.20;99.90
27544;DHT22;17996;51.056;3.656;2022-10-31T00:14:43;14.10;99.90
27544;DHT22;17996;51.056;3.656;2022-10-31T00:17:09;14.10;99.90
27544;DHT22;17996;51.056;3.656;2022-10-31T00:19:36;14.30;99.90
27544;DHT22;17996;51.056;3.656;2022-10-31T00:22:02;14.20;99.90
27544;DHT22;17996;51.056;3.656;2022-10-31T00:24:27;14.00;99.90
27544;DHT22;17996;51.056;3.656;2022-10-31T00:26:53;14.00;99.90
27544;DHT22;17996;51.056;3.656;2022-10-31T00:29:20;14.00;99.90
27544;DHT22;17996;51.056;3.656;2022-10-31T00:31:45;14.10;99.90
27544;DHT22;17996;51.056;3.656;2022-10-31T00:34:11;14.10;99.90
27544;DHT22;17996;51.056;3.656;2022-10-31T00:36:37;13.90;99.90
27544;DHT22;17996;51.056;3.656;2022-10-31T00:39:03;14.00;99.90
27544;DHT22;17996;51.056;3.656;2022-10-31T00:41:29;13.80;99.90
27544;DHT22;17996;51.056;3.656;2022-10-31T00:43:55;13.80;99.90
27544;DHT22;17996;51.056;3.656;2022-10-31T00:46:20;13.80;99.90
27544;DHT22;17996;51.056;3.656;2022-10-31T00:48:46;13.80;99.90
27544;DHT22;17996;51.056;3.656;2022-10-31T00:51:12;14.00;99.90
27544;DHT22;17996;51.056;3.656;2022-10-31T00:53:38;14.00;99.90
27544;DHT22;17996;51.056;3.656;2022-10-31T00:56:03;13.70;99.90
27544;DHT22;17996;51.056;3.656;2022-10-31T00:58:29;13.70;99.90
27544;DHT22;17996;51.056;3.656;2022-10-31T01:00:56;13.90;99.90
27544;DHT22;17996;51.056;3.656;2022-10-31T01:03:27;13.70;99.90
27544;DHT22;17996;51.056;3.656;2022-10-31T01:08:31;13.60;99.90
27544;DHT22;17996;51.056;3.656;2022-10-31T01:11:01;13.60;99.90
27544;DHT22;17996;51.056;3.656;2022-10-31T01:13:27;13.60;99.90
27544;DHT22;17996;51.056;3.656;2022-10-31T01:15:55;13.60;99.90
27544;DHT22;17996;51.056;3.656;2022-10-31T01:18:21;13.60;99.90
27544;DHT22;17996;51.056;3.656;2022-10-31T01:20:47;13.60;99.90
27544;DHT22;17996;51.056;3.656;2022-10-31T01:23:21;13.80;99.90
27544;DHT22;17996;51.056;3.656;2022-10-31T01:25:48;13.60;99.90
27544;DHT22;17996;51.056;3.656;2022-10-31T01:28:13;13.60;99.90
27544;DHT22;17996;51.056;3.656;2022-10-31T01:30:40;13.60;99.90
27544;DHT22;17996;51.056;3.656;2022-10-31T01:33:06;13.50;99.90
27544;DHT22;17996;51.056;3.656;2022-10-31T01:35:31;13.50;99.90
27544;DHT22;17996;51.056;3.656;2022-10-31T01:37:58;13.50;99.90
27544;DHT22;17996;51.056;3.656;2022-10-31T01:40:24;13.60;99.90
27544;DHT22;17996;51.056;3.656;2022-10-31T01:42:49;13.60;99.90
27544;DHT22;17996;51.056;3.656;2022-10-31T01:45:17;13.50;99.90
27544;DHT22;17996;51.056;3.656;2022-10-31T01:47:45;13.40;99.90
27544;DHT22;17996;51.056;3.656;2022-10-31T01:50:28;13.40;99.90
27544;DHT22;17996;51.056;3.656;2022-10-31T01:52:56;13.40;99.90
27544;DHT22;17996;51.056;3.656;2022-10-31T01:55:29;13.40;99.90
27544;DHT22;17996;51.056;3.656;2022-10-31T01:57:58;13.40;99.90
27544;DHT22;17996;51.056;3.656;2022-10-31T02:00:27;13.60;99.90
27544;DHT22;17996;51.056;3.656;2022-10-31T02:02:55;13.30;99.90
27544;DHT22;17996;51.056;3.656;2022-10-31T02:05:28;13.30;99.90
27544;DHT22;17996;51.056;3.656;2022-10-31T02:10:31;13.40;99.90
27544;DHT22;17996;51.056;3.656;2022-10-31T02:13:01;13.30;99.90
27544;DHT22;17996;51.056;3.656;2022-10-31T02:15:30;13.30;99.90
27544;DHT22;17996;51.056;3.656;2022-10-31T02:17:56;13.20;99.90
27544;DHT22;17996;51.056;3.656;2022-10-31T02:20:24;13.30;99.90
27544;DHT22;17996;51.056;3.656;2022-10-31T02:32:02;13.20;99.90
27544;DHT22;17996;51.056;3.656;2022-10-31T02:36:59;13.20;99.90
27544;DHT22;17996;51.056;3.656;2022-10-31T02:42:15;13.20;99.90
27544;DHT22;17996;51.056;3.656;2022-10-31T02:44:44;13.20;99.90
27544;DHT22;17996;51.056;3.656;2022-10-31T02:47:16;13.20;99.90
27544;DHT22;17996;51.056;3.656;2022-10-31T02:52:30;13.20;99.90
27544;DHT22;17996;51.056;3.656;2022-10-31T02:54:57;13.20;99.90
27544;DHT22;17996;51.056;3.656;2022-10-31T02:57:26;13.20;99.90
27544;DHT22;17996;51.056;3.656;2022-10-31T02:59:56;13.30;99.90
27544;DHT22;17996;51.056;3.656;2022-10-31T03:07:50;13.10;99.90
27544;DHT22;17996;51.056;3.656;2022-10-31T03:10:39;13.10;99.90
27544;DHT22;17996;51.056;3.656;2022-10-31T03:15:49;13.10;99.90
27544;DHT22;17996;51.056;3.656;2022-10-31T03:20:54;13.10;99.90
27544;DHT22;17996;51.056;3.656;2022-10-31T03:23:22;13.00;99.90
27544;DHT22;17996;51.056;3.656;2022-10-31T03:25:50;13.00;99.90
27544;DHT22;17996;51.056;3.656;2022-10-31T03:28:25;13.00;99.90
27544;DHT22;17996;51.056;3.656;2022-10-31T03:30:52;13.10;99.90
27544;DHT22;17996;51.056;3.656;2022-10-31T03:33:24;13.00;99.90
27544;DHT22;17996;51.056;3.656;2022-10-31T03:35:55;13.10;99.90
27544;DHT22;17996;51.056;3.656;2022-10-31T03:38:22;12.90;99.90
27544;DHT22;17996;51.056;3.656;2022-10-31T03:40:50;12.90;99.90
27544;DHT22;17996;51.056;3.656;2022-10-31T03:43:21;12.90;99.90
27544;DHT22;17996;51.056;3.656;2022-10-31T03:45:49;12.90;99.90
27544;DHT22;17996;51.056;3.656;2022-10-31T03:48:17;12.90;99.90
27544;DHT22;17996;51.056;3.656;2022-10-31T03:51:07;12.90;99.90
27544;DHT22;17996;51.056;3.656;2022-10-31T03:53:51;12.90;99.90
27544;DHT22;17996;51.056;3.656;2022-10-31T03:56:45;12.90;99.90
27544;DHT22;17996;51.056;3.656;2022-10-31T03:59:24;12.90;99.90
27544;DHT22;17996;51.056;3.656;2022-10-31T04:01:55;12.80;99.90
27544;DHT22;17996;51.056;3.656;2022-10-31T04:04:22;12.90;99.90
27544;DHT22;17996;51.056;3.656;2022-10-31T04:06:50;12.90;99.90
27544;DHT22;17996;51.056;3.656;2022-10-31T04:09:19;12.80;99.90
27544;DHT22;17996;51.056;3.656;2022-10-31T04:11:51;12.90;99.90
27544;DHT22;17996;51.056;3.656;2022-10-31T04:14:21;12.80;99.90
27544;DHT22;17996;51.056;3.656;2022-10-31T04:16:52;12.90;99.90
27544;DHT22;17996;51.056;3.656;2022-10-31T04:19:19;13.00;99.90
27544;DHT22;17996;51.056;3.656;2022-10-31T04:21:44;12.80;99.90
27544;DHT22;17996;51.056;3.656;2022-10-31T04:24:11;12.70;99.90
27544;DHT22;17996;51.056;3.656;2022-10-31T04:26:37;12.70;99.90
27544;DHT22;17996;51.056;3.656;2022-10-31T04:29:03;12.80;99.90
27544;DHT22;17996;51.056;3.656;2022-10-31T04:31:29;12.90;99.90
27544;DHT22;17996;51.056;3.656;2022-10-31T04:33:57;12.70;99.90
27544;DHT22;17996;51.056;3.656;2022-10-31T04:36:23;12.80;99.90
27544;DHT22;17996;51.056;3.656;2022-10-31T04:38:49;12.70;99.90
27544;DHT22;17996;51.056;3.656;2022-10-31T04:41:17;12.80;99.90
27544;DHT22;17996;51.056;3.656;2022-10-31T04:43:42;12.80;99.90
27544;DHT22;17996;51.056;3.656;2022-10-31T04:46:09;12.60;99.90
27544;DHT22;17996;51.056;3.656;2022-10-31T04:48:34;12.60;99.90
27544;DHT22;17996;51.056;3.656;2022-10-31T04:51:01;12.60;99.90
27544;DHT22;17996;51.056;3.656;2022-10-31T04:53:27;12.50;99.90
27544;DHT22;17996;51.056;3.656;2022-10-31T04:55:54;12.70;99.90
27544;DHT22;17996;51.056;3.656;2022-10-31T04:58:20;12.60;99.90
27544;DHT22;17996;51.056;3.656;2022-10-31T05:00:51;12.50;99.90
27544;DHT22;17996;51.056;3.656;2022-10-31T05:03:19;12.50;99.90
27544;DHT22;17996;51.056;3.656;2022-10-31T05:05:46;12.40;99.90
27544;DHT22;17996;51.056;3.656;2022-10-31T05:08:12;12.50;99.90
27544;DHT22;17996;51.056;3.656;2022-10-31T05:10:38;12.40;99.90
27544;DHT22;17996;51.056;3.656;2022-10-31T05:13:04;12.40;99.90
27544;DHT22;17996;51.056;3.656;2022-10-31T05:15:31;12.40;99.90
27544;DHT22;17996;51.056;3.656;2022-10-31T05:17:57;12.40;99.90
27544;DHT22;17996;51.056;3.656;2022-10-31T05:20:28;12.50;99.90
27544;DHT22;17996;51.056;3.656;2022-10-31T05:22:55;12.40;99.90
27544;DHT22;17996;51.056;3.656;2022-10-31T05:25:23;12.40;99.90
27544;DHT22;17996;51.056;3.656;2022-10-31T05:27:51;12.30;99.90
27544;DHT22;17996;51.056;3.656;2022-10-31T05:30:20;12.20;99.90
27544;DHT22;17996;51.056;3.656;2022-10-31T05:32:48;12.20;99.90
27544;DHT22;17996;51.056;3.656;2022-10-31T05:35:16;12.20;99.90
27544;DHT22;17996;51.056;3.656;2022-10-31T05:37:42;12.30;99.90
27544;DHT22;17996;51.056;3.656;2022-10-31T05:40:11;12.10;99.90
27544;DHT22;17996;51.056;3.656;2022-10-31T05:42:39;12.10;99.90
27544;DHT22;17996;51.056;3.656;2022-10-31T05:45:09;12.20;99.90
27544;DHT22;17996;51.056;3.656;2022-10-31T05:47:35;12.10;99.90
27544;DHT22;17996;51.056;3.656;2022-10-31T05:50:00;12.10;99.90
27544;DHT22;17996;51.056;3.656;2022-10-31T05:52:26;12.30;99.90
27544;DHT22;17996;51.056;3.656;2022-10-31T05:54:51;12.10;99.90
27544;DHT22;17996;51.056;3.656;2022-10-31T05:57:17;12.20;99.90
27544;DHT22;17996;51.056;3.656;2022-10-31T05:59:45;12.30;99.90
27544;DHT22;17996;51.056;3.656;2022-10-31T06:02:10;12.10;99.90
27544;DHT22;17996;51.056;3.656;2022-10-31T06:04:36;12.10;99.90
27544;DHT22;17996;51.056;3.656;2022-10-31T06:07:02;12.10;99.90
27544;DHT22;17996;51.056;3.656;2022-10-31T06:09:27;12.30;99.90
27544;DHT22;17996;51.056;3.656;2022-10-31T06:11:54;12.10;99.90
27544;DHT22;17996;51.056;3.656;2022-10-31T06:14:21;12.10;99.90
27544;DHT22;17996;51.056;3.656;2022-10-31T06:16:48;12.00;99.90
27544;DHT22;17996;51.056;3.656;2022-10-31T06:19:14;12.10;99.90
27544;DHT22;17996;51.056;3.656;2022-10-31T06:21:39;12.10;99.90
27544;DHT22;17996;51.056;3.656;2022-10-31T06:24:05;12.30;99.90
27544;DHT22;17996;51.056;3.656;2022-10-31T06:26:31;12.10;99.90
27544;DHT22;17996;51.056;3.656;2022-10-31T06:28:57;12.10;99.90
27544;DHT22;17996;51.056;3.656;2022-10-31T06:31:23;12.10;99.90
27544;DHT22;17996;51.056;3.656;2022-10-31T06:33:49;12.20;99.90
27544;DHT22;17996;51.056;3.656;2022-10-31T06:36:14;12.20;99.90
27544;DHT22;17996;51.056;3.656;2022-10-31T06:38:41;12.40;99.90
27544;DHT22;17996;51.056;3.656;2022-10-31T06:41:08;12.50;99.90
27544;DHT22;17996;51.056;3.656;2022-10-31T06:43:34;12.40;99.90
27544;DHT22;17996;51.056;3.656;2022-10-31T06:46:03;12.40;99.90
27544;DHT22;17996;51.056;3.656;2022-10-31T06:48:29;12.40;99.90
27544;DHT22;17996;51.056;3.656;2022-10-31T06:51:01;12.50;99.90
27544;DHT22;17996;51.056;3.656;2022-10-31T06:53:28;12.50;99.90
27544;DHT22;17996;51.056;3.656;2022-10-31T06:55:56;12.70;99.90
27544;DHT22;17996;51.056;3.656;2022-10-31T06:58:22;12.70;99.90
27544;DHT22;17996;51.056;3.656;2022-10-31T07:00:47;12.60;99.90
27544;DHT22;17996;51.056;3.656;2022-10-31T07:03:14;12.70;99.90
27544;DHT22;17996;51.056;3.656;2022-10-31T07:05:41;12.70;99.90
27544;DHT22;17996;51.056;3.656;2022-10-31T07:08:09;12.80;99.90
27544;DHT22;17996;51.056;3.656;2022-10-31T07:10:36;13.00;99.90
27544;DHT22;17996;51.056;3.656;2022-10-31T07:13:05;12.80;99.90
27544;DHT22;17996;51.056;3.656;2022-10-31T07:15:37;12.90;99.90
27544;DHT22;17996;51.056;3.656;2022-10-31T07:18:05;13.00;99.90
27544;DHT22;17996;51.056;3.656;2022-10-31T07:20:31;13.00;99.90
27544;DHT22;17996;51.056;3.656;2022-10-31T07:22:57;13.00;99.90
27544;DHT22;17996;51.056;3.656;2022-10-31T07:25:24;13.00;99.90
27544;DHT22;17996;51.056;3.656;2022-10-31T07:27:50;13.00;99.90
27544;DHT22;17996;51.056;3.656;2022-10-31T07:30:16;13.10;99.90
27544;DHT22;17996;51.056;3.656;2022-10-31T07:32:46;13.10;99.90
27544;DHT22;17996;51.056;3.656;2022-10-31T07:35:15;13.10;99.90
27544;DHT22;17996;51.056;3.656;2022-10-31T07:37:41;13.20;99.90
27544;DHT22;17996;51.056;3.656;2022-10-31T07:40:07;13.20;99.90
27544;DHT22;17996;51.056;3.656;2022-10-31T07:42:38;13.20;99.90
27544;DHT22;17996;51.056;3.656;2022-10-31T07:45:05;13.30;99.90
27544;DHT22;17996;51.056;3.656;2022-10-31T07:47:41;13.40;99.90
27544;DHT22;17996;51.056;3.656;2022-10-31T07:50:09;13.40;99.90
27544;DHT22;17996;51.056;3.656;2022-10-31T07:52:35;13.40;99.90
27544;DHT22;17996;51.056;3.656;2022-10-31T07:55:01;13.50;99.90
27544;DHT22;17996;51.056;3.656;2022-10-31T07:57:26;13.50;99.90
27544;DHT22;17996;51.056;3.656;2022-10-31T07:59:52;13.50;99.90
27544;DHT22;17996;51.056;3.656;2022-10-31T08:02:18;13.60;99.90
27544;DHT22;17996;51.056;3.656;2022-10-31T08:04:43;13.60;99.90
27544;DHT22;17996;51.056;3.656;2022-10-31T08:07:10;13.50;99.90
27544;DHT22;17996;51.056;3.656;2022-10-31T08:09:36;13.60;99.90
27544;DHT22;17996;51.056;3.656;2022-10-31T08:12:01;13.60;99.90
27544;DHT22;17996;51.056;3.656;2022-10-31T08:14:27;13.60;99.90
27544;DHT22;17996;51.056;3.656;2022-10-31T08:16:54;13.70;99.90
27544;DHT22;17996;51.056;3.656;2022-10-31T08:19:21;13.70;99.90
27544;DHT22;17996;51.056;3.656;2022-10-31T08:21:49;13.70;99.90
27544;DHT22;17996;51.056;3.656;2022-10-31T08:24:15;13.70;99.90
27544;DHT22;17996;51.056;3.656;2022-10-31T08:26:41;13.80;99.90
27544;DHT22;17996;51.056;3.656;2022-10-31T08:29:06;13.80;99.90
27544;DHT22;17996;51.056;3.656;2022-10-31T08:31:32;13.80;99.90
27544;DHT22;17996;51.056;3.656;2022-10-31T08:33:58;13.80;99.90
27544;DHT22;17996;51.056;3.656;2022-10-31T08:36:23;14.00;99.90
27544;DHT22;17996;51.056;3.656;2022-10-31T08:38:49;13.90;99.90
27544;DHT22;17996;51.056;3.656;2022-10-31T08:41:15;13.90;99.90
27544;DHT22;17996;51.056;3.656;2022-10-31T08:43:41;13.90;99.90
27544;DHT22;17996;51.056;3.656;2022-10-31T08:46:06;14.00;99.90
27544;DHT22;17996;51.056;3.656;2022-10-31T08:48:32;14.00;99.90
27544;DHT22;17996;51.056;3.656;2022-10-31T08:50:59;14.10;99.90
27544;DHT22;17996;51.056;3.656;2022-10-31T08:53:25;14.00;99.90
27544;DHT22;17996;51.056;3.656;2022-10-31T08:55:54;14.00;99.90
27544;DHT22;17996;51.056;3.656;2022-10-31T08:58:20;14.10;99.90
27544;DHT22;17996;51.056;3.656;2022-10-31T09:00:48;14.10;99.90
27544;DHT22;17996;51.056;3.656;2022-10-31T09:03:19;14.10;99.90
27544;DHT22;17996;51.056;3.656;2022-10-31T09:05:45;14.30;99.90
27544;DHT22;17996;51.056;3.656;2022-10-31T09:08:11;14.30;99.90
27544;DHT22;17996;51.056;3.656;2022-10-31T09:10:37;14.40;99.90
27544;DHT22;17996;51.056;3.656;2022-10-31T09:13:10;14.60;99.90
27544;DHT22;17996;51.056;3.656;2022-10-31T09:15:38;14.80;99.90
27544;DHT22;17996;51.056;3.656;2022-10-31T09:18:04;14.80;99.90
27544;DHT22;17996;51.056;3.656;2022-10-31T09:20:31;14.90;99.90
27544;DHT22;17996;51.056;3.656;2022-10-31T09:23:08;15.00;99.90
27544;DHT22;17996;51.056;3.656;2022-10-31T09:25:34;15.00;99.90
27544;DHT22;17996;51.056;3.656;2022-10-31T09:28:03;15.10;99.90
27544;DHT22;17996;51.056;3.656;2022-10-31T09:30:31;15.00;99.90
27544;DHT22;17996;51.056;3.656;2022-10-31T09:32:58;15.10;99.90
27544;DHT22;17996;51.056;3.656;2022-10-31T09:35:25;15.10;99.90
27544;DHT22;17996;51.056;3.656;2022-10-31T09:37:58;15.10;99.90
27544;DHT22;17996;51.056;3.656;2022-10-31T09:40:37;15.10;99.90
27544;DHT22;17996;51.056;3.656;2022-10-31T09:46:21;15.30;99.90
27544;DHT22;17996;51.056;3.656;2022-10-31T09:51:42;15.40;99.90
27544;DHT22;17996;51.056;3.656;2022-10-31T09:54:21;15.40;99.90
27544;DHT22;17996;51.056;3.656;2022-10-31T09:56:51;15.50;99.90
27544;DHT22;17996;51.056;3.656;2022-10-31T09:59:33;15.40;99.90
27544;DHT22;17996;51.056;3.656;2022-10-31T10:02:23;15.50;99.90
27544;DHT22;17996;51.056;3.656;2022-10-31T10:09:49;15.60;99.90
27544;DHT22;17996;51.056;3.656;2022-10-31T10:15:02;15.70;99.90
27544;DHT22;17996;51.056;3.656;2022-10-31T10:23:11;15.80;99.90
27544;DHT22;17996;51.056;3.656;2022-10-31T10:25:41;15.80;99.90
27544;DHT22;17996;51.056;3.656;2022-10-31T10:28:23;15.80;99.90
27544;DHT22;17996;51.056;3.656;2022-10-31T10:30:54;15.80;99.90
27544;DHT22;17996;51.056;3.656;2022-10-31T10:33:40;15.90;99.90
27544;DHT22;17996;51.056;3.656;2022-10-31T10:36:12;16.10;99.90
27544;DHT22;17996;51.056;3.656;2022-10-31T10:38:49;16.20;99.90
27544;DHT22;17996;51.056;3.656;2022-10-31T10:41:19;16.40;99.90
27544;DHT22;17996;51.056;3.656;2022-10-31T10:43:49;16.50;99.90
27544;DHT22;17996;51.056;3.656;2022-10-31T10:55:30;16.70;99.90
27544;DHT22;17996;51.056;3.656;2022-10-31T10:57:58;16.80;99.90
27544;DHT22;17996;51.056;3.656;2022-10-31T11:00:38;16.70;99.90
27544;DHT22;17996;51.056;3.656;2022-10-31T11:03:06;16.60;99.90
27544;DHT22;17996;51.056;3.656;2022-10-31T11:05:55;16.60;99.90
27544;DHT22;17996;51.056;3.656;2022-10-31T11:11:24;16.50;99.90
27544;DHT22;17996;51.056;3.656;2022-10-31T11:13:55;16.50;99.90
27544;DHT22;17996;51.056;3.656;2022-10-31T11:16:36;16.50;99.90
27544;DHT22;17996;51.056;3.656;2022-10-31T11:19:29;16.60;99.90
27544;DHT22;17996;51.056;3.656;2022-10-31T11:22:06;16.60;99.90
27544;DHT22;17996;51.056;3.656;2022-10-31T11:24:39;16.60;99.90
27544;DHT22;17996;51.056;3.656;2022-10-31T11:27:19;16.70;99.90
27544;DHT22;17996;51.056;3.656;2022-10-31T11:29:45;16.80;99.90
27544;DHT22;17996;51.056;3.656;2022-10-31T11:32:37;16.80;99.90
27544;DHT22;17996;51.056;3.656;2022-10-31T11:35:10;16.90;99.90
27544;DHT22;17996;51.056;3.656;2022-10-31T11:37:42;16.90;99.90
27544;DHT22;17996;51.056;3.656;2022-10-31T11:40:22;16.90;99.90
27544;DHT22;17996;51.056;3.656;2022-10-31T11:42:50;17.00;99.90
27544;DHT22;17996;51.056;3.656;2022-10-31T11:45:38;17.00;99.90
27544;DHT22;17996;51.056;3.656;2022-10-31T11:48:16;17.00;99.90
27544;DHT22;17996;51.056;3.656;2022-10-31T11:50:48;17.10;99.90
27544;DHT22;17996;51.056;3.656;2022-10-31T11:53:27;17.20;99.90
27544;DHT22;17996;51.056;3.656;2022-10-31T11:56:12;17.30;99.90
27544;DHT22;17996;51.056;3.656;2022-10-31T11:58:38;17.40;99.90
27544;DHT22;17996;51.056;3.656;2022-10-31T12:01:04;17.50;99.90
27544;DHT22;17996;51.056;3.656;2022-10-31T12:03:57;17.50;99.90
27544;DHT22;17996;51.056;3.656;2022-10-31T12:06:33;17.50;99.90
27544;DHT22;17996;51.056;3.656;2022-10-31T12:08:59;17.50;99.90
27544;DHT22;17996;51.056;3.656;2022-10-31T12:11:41;17.50;99.90
27544;DHT22;17996;51.056;3.656;2022-10-31T12:16:50;17.50;99.90
27544;DHT22;17996;51.056;3.656;2022-10-31T12:22:24;17.60;99.90
27544;DHT22;17996;51.056;3.656;2022-10-31T12:41:20;17.70;99.90
27544;DHT22;17996;51.056;3.656;2022-10-31T12:46:32;17.70;99.90
27544;DHT22;17996;51.056;3.656;2022-10-31T12:49:21;17.70;99.90
27544;DHT22;17996;51.056;3.656;2022-10-31T12:57:23;17.70;99.90
27544;DHT22;17996;51.056;3.656;2022-10-31T13:02:28;17.60;99.90
27544;DHT22;17996;51.056;3.656;2022-10-31T13:05:34;17.50;99.90
27544;DHT22;17996;51.056;3.656;2022-10-31T13:08:21;17.50;99.90
27544;DHT22;17996;51.056;3.656;2022-10-31T13:11:02;17.50;99.90
27544;DHT22;17996;51.056;3.656;2022-10-31T13:13:33;17.40;99.90
27544;DHT22;17996;51.056;3.656;2022-10-31T13:16:13;17.40;99.90
27544;DHT22;17996;51.056;3.656;2022-10-31T13:19:07;17.40;99.90
27544;DHT22;17996;51.056;3.656;2022-10-31T13:24:13;17.40;99.90
27544;DHT22;17996;51.056;3.656;2022-10-31T13:26:50;17.40;99.90
27544;DHT22;17996;51.056;3.656;2022-10-31T13:29:22;17.50;99.90
27544;DHT22;17996;51.056;3.656;2022-10-31T13:31:48;17.40;99.90
27544;DHT22;17996;51.056;3.656;2022-10-31T13:34:39;17.50;99.90
27544;DHT22;17996;51.056;3.656;2022-10-31T13:40:14;17.60;99.90
27544;DHT22;17996;51.056;3.656;2022-10-31T13:45:53;17.60;99.90
27544;DHT22;17996;51.056;3.656;2022-10-31T13:51:09;17.80;99.90
27544;DHT22;17996;51.056;3.656;2022-10-31T13:53:41;17.90;99.90
27544;DHT22;17996;51.056;3.656;2022-10-31T13:58:34;18.00;99.90
27544;DHT22;17996;51.056;3.656;2022-10-31T14:01:17;18.00;99.90
27544;DHT22;17996;51.056;3.656;2022-10-31T14:03:46;18.00;99.90
27544;DHT22;17996;51.056;3.656;2022-10-31T14:06:13;18.00;99.90
27544;DHT22;17996;51.056;3.656;2022-10-31T14:08:46;18.00;99.90
27544;DHT22;17996;51.056;3.656;2022-10-31T14:11:25;18.00;99.90
27544;DHT22;17996;51.056;3.656;2022-10-31T14:13:55;18.00;99.90
27544;DHT22;17996;51.056;3.656;2022-10-31T14:16:28;17.90;99.90
27544;DHT22;17996;51.056;3.656;2022-10-31T14:19:05;17.80;99.90
27544;DHT22;17996;51.056;3.656;2022-10-31T14:21:38;17.80;99.90
27544;DHT22;17996;51.056;3.656;2022-10-31T14:24:15;17.70;99.90
27544;DHT22;17996;51.056;3.656;2022-10-31T14:32:04;17.80;99.90
27544;DHT22;17996;51.056;3.656;2022-10-31T14:34:39;17.90;99.90
27544;DHT22;17996;51.056;3.656;2022-10-31T14:51:40;17.80;99.90
27544;DHT22;17996;51.056;3.656;2022-10-31T14:54:10;17.80;99.90
27544;DHT22;17996;51.056;3.656;2022-10-31T14:56:49;17.90;99.90
27544;DHT22;17996;51.056;3.656;2022-10-31T14:59:22;18.00;99.90
27544;DHT22;17996;51.056;3.656;2022-10-31T15:02:14;18.10;99.90
27544;DHT22;17996;51.056;3.656;2022-10-31T15:04:42;18.20;99.90
27544;DHT22;17996;51.056;3.656;2022-10-31T15:07:24;18.20;99.90
27544;DHT22;17996;51.056;3.656;2022-10-31T15:10:23;18.20;99.90
27544;DHT22;17996;51.056;3.656;2022-10-31T15:12:50;18.10;99.90
27544;DHT22;17996;51.056;3.656;2022-10-31T15:15:22;17.80;99.90
27544;DHT22;17996;51.056;3.656;2022-10-31T15:17:52;17.70;99.90
27544;DHT22;17996;51.056;3.656;2022-10-31T15:20:25;17.60;99.90
27544;DHT22;17996;51.056;3.656;2022-10-31T15:22:53;17.60;99.90
27544;DHT22;17996;51.056;3.656;2022-10-31T15:25:24;17.50;99.90
27544;DHT22;17996;51.056;3.656;2022-10-31T15:27:52;17.50;99.90
27544;DHT22;17996;51.056;3.656;2022-10-31T15:30:19;17.50;99.90
27544;DHT22;17996;51.056;3.656;2022-10-31T15:32:46;17.40;99.90
27544;DHT22;17996;51.056;3.656;2022-10-31T15:35:23;17.40;99.90
27544;DHT22;17996;51.056;3.656;2022-10-31T15:37:52;17.40;99.90
27544;DHT22;17996;51.056;3.656;2022-10-31T15:40:19;17.40;99.90
27544;DHT22;17996;51.056;3.656;2022-10-31T15:43:10;17.40;99.90
27544;DHT22;17996;51.056;3.656;2022-10-31T15:45:36;17.30;99.90
27544;DHT22;17996;51.056;3.656;2022-10-31T15:48:17;17.20;99.90
27544;DHT22;17996;51.056;3.656;2022-10-31T15:50:56;17.20;99.90
27544;DHT22;17996;51.056;3.656;2022-10-31T15:53:29;17.10;99.90
27544;DHT22;17996;51.056;3.656;2022-10-31T15:56:01;17.00;99.90
27544;DHT22;17996;51.056;3.656;2022-10-31T15:58:28;17.00;99.90
27544;DHT22;17996;51.056;3.656;2022-10-31T16:01:06;16.90;99.90
27544;DHT22;17996;51.056;3.656;2022-10-31T16:03:43;16.90;99.90
27544;DHT22;17996;51.056;3.656;2022-10-31T16:06:20;16.80;99.90
27544;DHT22;17996;51.056;3.656;2022-10-31T16:08:49;16.80;99.90
27544;DHT22;17996;51.056;3.656;2022-10-31T16:11:30;16.70;99.90
27544;DHT22;17996;51.056;3.656;2022-10-31T16:14:04;16.60;99.90
27544;DHT22;17996;51.056;3.656;2022-10-31T16:16:32;16.60;99.90
27544;DHT22;17996;51.056;3.656;2022-10-31T16:18:59;16.50;99.90
27544;DHT22;17996;51.056;3.656;2022-10-31T16:21:36;16.50;99.90
27544;DHT22;17996;51.056;3.656;2022-10-31T16:24:17;16.50;99.90
27544;DHT22;17996;51.056;3.656;2022-10-31T16:26:51;16.40;99.90
27544;DHT22;17996;51.056;3.656;2022-10-31T16:29:47;16.40;99.90
27544;DHT22;17996;51.056;3.656;2022-10-31T16:37:40;16.30;99.90
27544;DHT22;17996;51.056;3.656;2022-10-31T16:40:06;16.20;99.90
27544;DHT22;17996;51.056;3.656;2022-10-31T16:42:32;16.10;99.90
27544;DHT22;17996;51.056;3.656;2022-10-31T16:44:58;16.10;99.90
27544;DHT22;17996;51.056;3.656;2022-10-31T16:47:24;16.10;99.90
27544;DHT22;17996;51.056;3.656;2022-10-31T16:49:50;16.00;99.90
27544;DHT22;17996;51.056;3.656;2022-10-31T16:52:16;16.00;99.90
27544;DHT22;17996;51.056;3.656;2022-10-31T16:54:42;16.00;99.90
27544;DHT22;17996;51.056;3.656;2022-10-31T16:57:13;16.00;99.90
27544;DHT22;17996;51.056;3.656;2022-10-31T16:59:39;16.00;99.90
27544;DHT22;17996;51.056;3.656;2022-10-31T17:02:14;16.00;99.90
27544;DHT22;17996;51.056;3.656;2022-10-31T17:04:39;16.00;99.90
27544;DHT22;17996;51.056;3.656;2022-10-31T17:07:05;15.90;99.90
27544;DHT22;17996;51.056;3.656;2022-10-31T17:09:31;16.00;99.90
27544;DHT22;17996;51.056;3.656;2022-10-31T17:11:56;15.90;99.90
27544;DHT22;17996;51.056;3.656;2022-10-31T17:14:22;15.90;99.90
27544;DHT22;17996;51.056;3.656;2022-10-31T17:16:48;15.80;99.90
27544;DHT22;17996;51.056;3.656;2022-10-31T17:19:14;15.80;99.90
27544;DHT22;17996;51.056;3.656;2022-10-31T17:21:40;15.80;99.90
27544;DHT22;17996;51.056;3.656;2022-10-31T17:24:11;15.80;99.90
27544;DHT22;17996;51.056;3.656;2022-10-31T17:26:36;15.80;99.90
27544;DHT22;17996;51.056;3.656;2022-10-31T17:29:02;15.80;99.90
27544;DHT22;17996;51.056;3.656;2022-10-31T17:31:30;15.80;99.90
27544;DHT22;17996;51.056;3.656;2022-10-31T17:33:57;15.80;99.90
27544;DHT22;17996;51.056;3.656;2022-10-31T17:36:23;15.70;99.90
27544;DHT22;17996;51.056;3.656;2022-10-31T17:38:49;15.70;99.90
27544;DHT22;17996;51.056;3.656;2022-10-31T17:41:14;15.70;99.90
27544;DHT22;17996;51.056;3.656;2022-10-31T17:43:40;15.70;99.90
27544;DHT22;17996;51.056;3.656;2022-10-31T17:46:06;15.70;99.90
27544;DHT22;17996;51.056;3.656;2022-10-31T17:48:36;15.70;99.90
27544;DHT22;17996;51.056;3.656;2022-10-31T17:51:03;15.70;99.90
27544;DHT22;17996;51.056;3.656;2022-10-31T17:53:31;15.70;99.90
27544;DHT22;17996;51.056;3.656;2022-10-31T17:56:05;15.80;99.90
27544;DHT22;17996;51.056;3.656;2022-10-31T17:58:32;15.60;99.90
27544;DHT22;17996;51.056;3.656;2022-10-31T18:00:59;15.60;99.90
27544;DHT22;17996;51.056;3.656;2022-10-31T18:03:25;15.80;99.90